sensor_id;sensor_type;location;lat;lon;timestamp;pressure;altitude;pressure_sealevel;temperature;humidity
25526;BME280;13424;48.424;11.258;2023-03-31T00:02:20;95162.06;;;12.76;70.25
25526;BME280;13424;48.424;11.258;2023-03-31T00:04:47;95160.13;;;12.62;70.50
25526;BME280;13424;48.424;11.258;2023-03-31T00:07:26;95159.06;;;12.57;70.82
25526;BME280;13424;48.424;11.258;2023-03-31T00:09:52;95157.47;;;12.62;70.73
25526;BME280;13424;48.424;11.258;2023-03-31T00:12:31;95147.97;;;12.28;70.99
25526;BME280;13424;48.424;11.258;2023-03-31T00:14:57;95147.75;;;12.35;71.48
25526;BME280;13424;48.424;11.258;2023-03-31T00:17:25;95154.13;;;12.29;71.99
25526;BME280;13424;48.424;11.258;2023-03-31T00:19:51;95140.34;;;12.57;71.13
25526;BME280;13424;48.424;11.258;2023-03-31T00:22:53;95131.16;;;12.33;71.37
25526;BME280;13424;48.424;11.258;2023-03-31T00:25:22;95131.66;;;11.78;74.07
25526;BME280;13424;48.424;11.258;2023-03-31T00:27:48;95130.09;;;12.34;72.41
25526;BME280;13424;48.424;11.258;2023-03-31T00:30:17;95134.47;;;12.71;70.96
25526;BME280;13424;48.424;11.258;2023-03-31T00:32:43;95134.25;;;12.10;71.78
25526;BME280;13424;48.424;11.258;2023-03-31T00:35:09;95126.72;;;12.79;70.12
25526;BME280;13424;48.424;11.258;2023-03-31T00:37:36;95121.09;;;12.61;70.70
25526;BME280;13424;48.424;11.258;2023-03-31T00:40:03;95121.94;;;12.86;69.93
25526;BME280;13424;48.424;11.258;2023-03-31T00:42:39;95109.63;;;12.75;70.33
25526;BME280;13424;48.424;11.258;2023-03-31T00:47:44;95094.13;;;12.93;70.21
25526;BME280;13424;48.424;11.258;2023-03-31T00:50:22;95086.63;;;13.00;69.53
25526;BME280;13424;48.424;11.258;2023-03-31T00:52:56;95091.75;;;13.22;68.93
25526;BME280;13424;48.424;11.258;2023-03-31T00:55:34;95086.38;;;13.27;69.17
25526;BME280;13424;48.424;11.258;2023-03-31T00:58:02;95075.66;;;13.06;69.26
25526;BME280;13424;48.424;11.258;2023-03-31T01:00:30;95073.00;;;12.96;69.52
25526;BME280;13424;48.424;11.258;2023-03-31T01:03:00;95069.75;;;12.84;70.14
25526;BME280;13424;48.424;11.258;2023-03-31T01:05:53;95072.97;;;13.17;68.94
25526;BME280;13424;48.424;11.258;2023-03-31T01:08:24;95066.84;;;13.26;68.29
25526;BME280;13424;48.424;11.258;2023-03-31T01:10:58;95054.53;;;13.30;68.29
25526;BME280;13424;48.424;11.258;2023-03-31T01:13:25;95058.03;;;13.36;68.06
25526;BME280;13424;48.424;11.258;2023-03-31T01:15:52;95055.56;;;13.19;67.91
25526;BME280;13424;48.424;11.258;2023-03-31T01:18:18;95049.72;;;13.27;67.83
25526;BME280;13424;48.424;11.258;2023-03-31T01:21:41;95038.19;;;13.32;67.17
25526;BME280;13424;48.424;11.258;2023-03-31T01:39:00;95019.69;;;12.59;69.20
25526;BME280;13424;48.424;11.258;2023-03-31T01:47:25;95015.19;;;12.80;68.40
25526;BME280;13424;48.424;11.258;2023-03-31T01:52:41;94991.63;;;12.97;68.29
25526;BME280;13424;48.424;11.258;2023-03-31T01:55:21;94994.28;;;12.77;69.02
25526;BME280;13424;48.424;11.258;2023-03-31T02:01:01;94992.16;;;12.89;68.28
25526;BME280;13424;48.424;11.258;2023-03-31T02:03:37;94984.66;;;12.86;68.38
25526;BME280;13424;48.424;11.258;2023-03-31T02:06:15;94989.47;;;12.79;69.06
25526;BME280;13424;48.424;11.258;2023-03-31T02:08:46;94983.56;;;12.51;69.71
25526;BME280;13424;48.424;11.258;2023-03-31T02:11:13;94979.84;;;12.57;69.38
25526;BME280;13424;48.424;11.258;2023-03-31T02:13:41;94974.47;;;12.47;70.22
25526;BME280;13424;48.424;11.258;2023-03-31T02:16:15;94972.09;;;12.56;69.77
25526;BME280;13424;48.424;11.258;2023-03-31T02:18:43;94960.59;;;12.66;69.17
25526;BME280;13424;48.424;11.258;2023-03-31T02:21:14;94962.97;;;12.52;69.41
25526;BME280;13424;48.424;11.258;2023-03-31T02:23:42;94968.06;;;12.64;69.31
25526;BME280;13424;48.424;11.258;2023-03-31T02:26:30;94961.09;;;12.83;68.76
25526;BME280;13424;48.424;11.258;2023-03-31T02:29:01;94964.03;;;12.92;68.79
25526;BME280;13424;48.424;11.258;2023-03-31T02:31:40;94957.06;;;13.06;68.32
25526;BME280;13424;48.424;11.258;2023-03-31T02:34:10;94963.75;;;13.08;68.62
25526;BME280;13424;48.424;11.258;2023-03-31T02:36:36;94958.97;;;12.75;69.13
25526;BME280;13424;48.424;11.258;2023-03-31T02:39:08;94963.78;;;12.98;69.22
25526;BME280;13424;48.424;11.258;2023-03-31T02:41:36;94963.25;;;12.81;70.13
25526;BME280;13424;48.424;11.258;2023-03-31T02:44:02;94961.09;;;12.83;69.46
25526;BME280;13424;48.424;11.258;2023-03-31T02:46:28;94962.16;;;13.12;69.06
25526;BME280;13424;48.424;11.258;2023-03-31T02:48:59;94962.72;;;12.84;68.89
25526;BME280;13424;48.424;11.258;2023-03-31T02:51:51;94964.34;;;12.65;70.39
25526;BME280;13424;48.424;11.258;2023-03-31T03:00:52;94965.91;;;12.55;70.43
25526;BME280;13424;48.424;11.258;2023-03-31T03:03:42;94959.75;;;12.35;72.20
25526;BME280;13424;48.424;11.258;2023-03-31T03:09:49;94970.72;;;12.43;73.96
25526;BME280;13424;48.424;11.258;2023-03-31T03:12:25;94975.75;;;12.14;76.11
25526;BME280;13424;48.424;11.258;2023-03-31T03:17:34;94970.16;;;12.31;75.20
25526;BME280;13424;48.424;11.258;2023-03-31T03:20:02;94969.66;;;12.34;75.74
25526;BME280;13424;48.424;11.258;2023-03-31T03:22:33;94978.19;;;12.26;77.05
25526;BME280;13424;48.424;11.258;2023-03-31T03:24:59;94973.09;;;12.29;77.51
25526;BME280;13424;48.424;11.258;2023-03-31T03:27:25;94970.19;;;12.26;77.64
25526;BME280;13424;48.424;11.258;2023-03-31T03:29:51;94971.25;;;12.35;77.75
25526;BME280;13424;48.424;11.258;2023-03-31T03:32:17;94964.31;;;12.34;78.20
25526;BME280;13424;48.424;11.258;2023-03-31T03:34:42;94959.22;;;12.43;78.14
25526;BME280;13424;48.424;11.258;2023-03-31T03:37:08;94953.34;;;12.36;78.81
25526;BME280;13424;48.424;11.258;2023-03-31T03:39:34;94951.47;;;12.36;78.80
25526;BME280;13424;48.424;11.258;2023-03-31T03:42:00;94950.13;;;12.34;79.36
25526;BME280;13424;48.424;11.258;2023-03-31T03:44:25;94945.56;;;12.39;79.05
25526;BME280;13424;48.424;11.258;2023-03-31T03:46:51;94926.06;;;12.49;78.88
25526;BME280;13424;48.424;11.258;2023-03-31T03:49:17;94926.59;;;12.30;80.02
25526;BME280;13424;48.424;11.258;2023-03-31T03:51:43;94922.81;;;12.01;80.83
25526;BME280;13424;48.424;11.258;2023-03-31T03:54:15;94922.78;;;11.91;80.75
25526;BME280;13424;48.424;11.258;2023-03-31T03:56:40;94916.13;;;11.93;81.76
25526;BME280;13424;48.424;11.258;2023-03-31T03:59:06;94909.69;;;11.99;81.04
25526;BME280;13424;48.424;11.258;2023-03-31T04:01:32;94906.50;;;12.08;81.04
25526;BME280;13424;48.424;11.258;2023-03-31T04:03:58;94919.34;;;12.16;80.92
25526;BME280;13424;48.424;11.258;2023-03-31T04:06:24;94914.78;;;12.16;81.11
25526;BME280;13424;48.424;11.258;2023-03-31T04:08:49;94906.53;;;12.18;81.09
25526;BME280;13424;48.424;11.258;2023-03-31T04:11:17;94886.75;;;12.29;80.74
25526;BME280;13424;48.424;11.258;2023-03-31T04:13:52;94870.16;;;12.52;80.18
25526;BME280;13424;48.424;11.258;2023-03-31T04:16:18;94863.19;;;12.67;79.51
25526;BME280;13424;48.424;11.258;2023-03-31T04:18:44;94851.16;;;12.74;79.38
25526;BME280;13424;48.424;11.258;2023-03-31T04:21:12;94844.50;;;12.51;80.62
25526;BME280;13424;48.424;11.258;2023-03-31T04:23:41;94839.94;;;12.57;80.40
25526;BME280;13424;48.424;11.258;2023-03-31T04:26:14;94832.75;;;12.22;82.15
25526;BME280;13424;48.424;11.258;2023-03-31T04:32:59;94839.69;;;12.23;81.93
25526;BME280;13424;48.424;11.258;2023-03-31T04:35:28;94826.31;;;12.28;82.25
25526;BME280;13424;48.424;11.258;2023-03-31T04:38:22;94810.28;;;12.08;83.54
25526;BME280;13424;48.424;11.258;2023-03-31T04:40:50;94802.75;;;11.74;84.10
25526;BME280;13424;48.424;11.258;2023-03-31T04:43:18;94808.41;;;12.39;82.25
25526;BME280;13424;48.424;11.258;2023-03-31T04:45:44;94778.75;;;11.89;84.25
25526;BME280;13424;48.424;11.258;2023-03-31T04:48:10;94770.72;;;11.99;84.37
25526;BME280;13424;48.424;11.258;2023-03-31T04:50:36;94748.84;;;12.02;83.58
25526;BME280;13424;48.424;11.258;2023-03-31T04:53:03;94758.72;;;12.12;83.30
25526;BME280;13424;48.424;11.258;2023-03-31T04:55:33;94748.84;;;11.82;84.53
25526;BME280;13424;48.424;11.258;2023-03-31T04:57:59;94730.38;;;11.91;83.92
25526;BME280;13424;48.424;11.258;2023-03-31T05:00:24;94727.19;;;11.84;84.84
25526;BME280;13424;48.424;11.258;2023-03-31T05:02:51;94721.56;;;11.65;85.54
25526;BME280;13424;48.424;11.258;2023-03-31T05:05:17;94729.84;;;11.73;85.30
25526;BME280;13424;48.424;11.258;2023-03-31T05:07:43;94727.72;;;11.81;85.48
25526;BME280;13424;48.424;11.258;2023-03-31T05:10:09;94712.72;;;11.74;85.01
25526;BME280;13424;48.424;11.258;2023-03-31T05:12:36;94700.47;;;11.84;85.48
25526;BME280;13424;48.424;11.258;2023-03-31T05:15:04;94692.16;;;12.11;83.94
25526;BME280;13424;48.424;11.258;2023-03-31T05:17:32;94694.28;;;12.19;83.77
25526;BME280;13424;48.424;11.258;2023-03-31T05:19:59;94684.72;;;11.82;85.01
25526;BME280;13424;48.424;11.258;2023-03-31T05:22:26;94684.16;;;11.65;85.58
25526;BME280;13424;48.424;11.258;2023-03-31T05:24:52;94676.66;;;12.08;84.04
25526;BME280;13424;48.424;11.258;2023-03-31T05:27:17;94684.06;;;12.31;82.88
25526;BME280;13424;48.424;11.258;2023-03-31T05:29:46;94670.78;;;11.75;85.20
25526;BME280;13424;48.424;11.258;2023-03-31T05:32:11;94656.41;;;11.86;85.08
25526;BME280;13424;48.424;11.258;2023-03-31T05:34:37;94647.03;;;11.79;85.96
25526;BME280;13424;48.424;11.258;2023-03-31T05:37:03;94628.09;;;11.80;85.28
25526;BME280;13424;48.424;11.258;2023-03-31T05:39:29;94614.19;;;11.78;85.70
25526;BME280;13424;48.424;11.258;2023-03-31T05:41:59;94606.16;;;11.73;85.90
25526;BME280;13424;48.424;11.258;2023-03-31T05:44:25;94596.03;;;11.70;86.24
25526;BME280;13424;48.424;11.258;2023-03-31T05:46:52;94578.13;;;11.70;85.99
25526;BME280;13424;48.424;11.258;2023-03-31T05:49:19;94583.19;;;11.82;86.25
25526;BME280;13424;48.424;11.258;2023-03-31T05:51:45;94575.97;;;11.93;85.85
25526;BME280;13424;48.424;11.258;2023-03-31T05:54:17;94574.06;;;11.98;85.15
25526;BME280;13424;48.424;11.258;2023-03-31T05:56:43;94562.06;;;11.91;86.17
25526;BME280;13424;48.424;11.258;2023-03-31T05:59:09;94558.34;;;11.82;86.33
25526;BME280;13424;48.424;11.258;2023-03-31T06:01:35;94553.25;;;11.95;85.80
25526;BME280;13424;48.424;11.258;2023-03-31T06:04:00;94558.06;;;11.93;86.43
25526;BME280;13424;48.424;11.258;2023-03-31T06:06:26;94554.19;;;12.25;84.69
25526;BME280;13424;48.424;11.258;2023-03-31T06:08:52;94563.25;;;12.24;85.04
25526;BME280;13424;48.424;11.258;2023-03-31T06:15:25;94551.53;;;12.20;84.92
25526;BME280;13424;48.424;11.258;2023-03-31T06:17:51;94544.75;;;12.38;84.46
25526;BME280;13424;48.424;11.258;2023-03-31T06:20:19;94545.41;;;12.14;85.06
25526;BME280;13424;48.424;11.258;2023-03-31T06:22:45;94538.00;;;12.01;86.18
25526;BME280;13424;48.424;11.258;2023-03-31T06:25:11;94546.09;;;12.40;84.05
25526;BME280;13424;48.424;11.258;2023-03-31T06:27:37;94540.53;;;12.71;82.76
25526;BME280;13424;48.424;11.258;2023-03-31T06:30:03;94529.22;;;12.45;84.31
25526;BME280;13424;48.424;11.258;2023-03-31T06:32:29;94523.56;;;12.46;83.96
25526;BME280;13424;48.424;11.258;2023-03-31T06:35:50;94519.06;;;12.42;83.88
25526;BME280;13424;48.424;11.258;2023-03-31T06:38:19;94519.94;;;12.71;82.87
25526;BME280;13424;48.424;11.258;2023-03-31T06:40:45;94532.59;;;12.61;83.28
25526;BME280;13424;48.424;11.258;2023-03-31T06:43:11;94537.13;;;12.99;81.44
25526;BME280;13424;48.424;11.258;2023-03-31T06:45:36;94547.31;;;12.58;83.53
25526;BME280;13424;48.424;11.258;2023-03-31T06:48:02;94555.22;;;12.29;85.12
25526;BME280;13424;48.424;11.258;2023-03-31T06:50:28;94569.47;;;13.03;81.40
25526;BME280;13424;48.424;11.258;2023-03-31T06:52:54;94589.75;;;12.75;82.62
25526;BME280;13424;48.424;11.258;2023-03-31T06:55:48;94599.88;;;12.23;84.12
25526;BME280;13424;48.424;11.258;2023-03-31T06:58:14;94616.06;;;12.57;83.61
25526;BME280;13424;48.424;11.258;2023-03-31T07:00:40;94618.91;;;12.76;82.38
25526;BME280;13424;48.424;11.258;2023-03-31T07:03:06;94634.09;;;12.86;82.07
25526;BME280;13424;48.424;11.258;2023-03-31T07:09:39;94638.47;;;12.72;83.13
25526;BME280;13424;48.424;11.258;2023-03-31T07:12:05;94613.59;;;12.07;86.25
25526;BME280;13424;48.424;11.258;2023-03-31T07:14:31;94614.47;;;12.51;84.51
25526;BME280;13424;48.424;11.258;2023-03-31T07:16:57;94609.25;;;12.21;85.74
25526;BME280;13424;48.424;11.258;2023-03-31T07:19:23;94603.41;;;12.14;85.20
25526;BME280;13424;48.424;11.258;2023-03-31T07:21:49;94596.06;;;12.45;84.50
25526;BME280;13424;48.424;11.258;2023-03-31T07:24:16;94605.97;;;12.44;83.77
25526;BME280;13424;48.424;11.258;2023-03-31T07:26:42;94611.53;;;12.53;83.74
25526;BME280;13424;48.424;11.258;2023-03-31T07:29:07;94615.50;;;12.01;87.03
25526;BME280;13424;48.424;11.258;2023-03-31T07:31:33;94613.47;;;12.32;85.19
25526;BME280;13424;48.424;11.258;2023-03-31T07:34:03;94580.66;;;12.26;85.07
25526;BME280;13424;48.424;11.258;2023-03-31T07:36:30;94591.34;;;12.21;85.84
25526;BME280;13424;48.424;11.258;2023-03-31T07:38:56;94552.13;;;12.07;86.69
25526;BME280;13424;48.424;11.258;2023-03-31T07:41:22;94525.81;;;12.34;85.91
25526;BME280;13424;48.424;11.258;2023-03-31T07:43:49;94515.91;;;12.74;84.76
25526;BME280;13424;48.424;11.258;2023-03-31T07:49:49;94485.84;;;12.87;84.44
25526;BME280;13424;48.424;11.258;2023-03-31T07:52:16;94496.84;;;13.20;83.80
25526;BME280;13424;48.424;11.258;2023-03-31T07:54:43;94491.50;;;13.14;83.74
25526;BME280;13424;48.424;11.258;2023-03-31T08:01:19;94471.72;;;13.10;84.53
25526;BME280;13424;48.424;11.258;2023-03-31T08:03:46;94448.41;;;13.11;85.12
25526;BME280;13424;48.424;11.258;2023-03-31T08:06:21;94442.78;;;12.83;85.51
25526;BME280;13424;48.424;11.258;2023-03-31T08:08:51;94454.75;;;13.49;83.98
25526;BME280;13424;48.424;11.258;2023-03-31T08:11:17;94446.59;;;13.06;84.51
25526;BME280;13424;48.424;11.258;2023-03-31T08:13:43;94439.56;;;13.16;84.15
25526;BME280;13424;48.424;11.258;2023-03-31T08:16:09;94433.25;;;13.01;83.72
25526;BME280;13424;48.424;11.258;2023-03-31T08:18:35;94416.72;;;12.94;84.35
25526;BME280;13424;48.424;11.258;2023-03-31T08:21:00;94419.22;;;13.20;83.89
25526;BME280;13424;48.424;11.258;2023-03-31T08:23:26;94404.75;;;12.86;84.35
25526;BME280;13424;48.424;11.258;2023-03-31T08:25:52;94407.13;;;12.93;84.91
25526;BME280;13424;48.424;11.258;2023-03-31T08:29:11;94429.50;;;13.02;83.22
25526;BME280;13424;48.424;11.258;2023-03-31T08:31:37;94461.94;;;13.30;82.82
25526;BME280;13424;48.424;11.258;2023-03-31T08:34:04;94486.72;;;13.11;82.89
25526;BME280;13424;48.424;11.258;2023-03-31T08:36:30;94534.31;;;13.73;81.10
25526;BME280;13424;48.424;11.258;2023-03-31T08:38:56;94562.19;;;12.74;85.81
25526;BME280;13424;48.424;11.258;2023-03-31T08:44:35;94625.25;;;12.41;87.49
25526;BME280;13424;48.424;11.258;2023-03-31T08:47:06;94630.53;;;12.46;86.97
25526;BME280;13424;48.424;11.258;2023-03-31T08:49:41;94581.34;;;12.92;84.05
25526;BME280;13424;48.424;11.258;2023-03-31T08:52:13;94540.13;;;13.27;82.41
25526;BME280;13424;48.424;11.258;2023-03-31T08:54:43;94540.38;;;13.59;79.99
25526;BME280;13424;48.424;11.258;2023-03-31T09:04:24;94477.19;;;14.01;78.30
25526;BME280;13424;48.424;11.258;2023-03-31T09:07:23;94498.94;;;14.00;77.29
25526;BME280;13424;48.424;11.258;2023-03-31T09:16:04;94486.00;;;13.83;77.60
25526;BME280;13424;48.424;11.258;2023-03-31T09:18:35;94481.41;;;14.07;78.34
25526;BME280;13424;48.424;11.258;2023-03-31T09:21:27;94462.28;;;14.33;76.75
25526;BME280;13424;48.424;11.258;2023-03-31T09:24:09;94476.56;;;14.66;78.15
25526;BME280;13424;48.424;11.258;2023-03-31T09:26:51;94466.06;;;14.69;75.77
25526;BME280;13424;48.424;11.258;2023-03-31T09:29:35;94456.22;;;14.97;76.19
25526;BME280;13424;48.424;11.258;2023-03-31T09:36:17;94441.47;;;14.43;75.02
25526;BME280;13424;48.424;11.258;2023-03-31T09:38:45;94442.16;;;14.54;74.46
25526;BME280;13424;48.424;11.258;2023-03-31T09:41:13;94431.19;;;14.50;72.78
25526;BME280;13424;48.424;11.258;2023-03-31T09:43:40;94431.94;;;14.89;73.97
25526;BME280;13424;48.424;11.258;2023-03-31T09:46:25;94431.03;;;15.53;72.59
25526;BME280;13424;48.424;11.258;2023-03-31T09:49:33;94432.25;;;15.61;74.57
25526;BME280;13424;48.424;11.258;2023-03-31T09:55:00;94438.78;;;15.27;73.20
25526;BME280;13424;48.424;11.258;2023-03-31T09:57:39;94428.03;;;15.27;70.02
25526;BME280;13424;48.424;11.258;2023-03-31T10:02:51;94422.09;;;15.58;71.26
25526;BME280;13424;48.424;11.258;2023-03-31T10:05:47;94423.44;;;16.10;74.69
25526;BME280;13424;48.424;11.258;2023-03-31T10:12:23;94422.81;;;16.86;70.66
25526;BME280;13424;48.424;11.258;2023-03-31T10:14:52;94410.22;;;17.26;68.00
25526;BME280;13424;48.424;11.258;2023-03-31T10:17:24;94403.66;;;16.87;69.19
25526;BME280;13424;48.424;11.258;2023-03-31T10:20:10;94387.28;;;16.75;69.15
25526;BME280;13424;48.424;11.258;2023-03-31T10:22:43;94380.88;;;16.48;65.97
25526;BME280;13424;48.424;11.258;2023-03-31T10:25:20;94382.34;;;16.99;69.31
25526;BME280;13424;48.424;11.258;2023-03-31T10:27:50;94366.44;;;16.22;67.47
25526;BME280;13424;48.424;11.258;2023-03-31T10:30:23;94369.00;;;16.50;68.24
25526;BME280;13424;48.424;11.258;2023-03-31T10:32:50;94362.38;;;16.69;66.88
25526;BME280;13424;48.424;11.258;2023-03-31T10:35:33;94373.53;;;16.40;67.69
25526;BME280;13424;48.424;11.258;2023-03-31T10:38:12;94371.34;;;17.58;69.30
25526;BME280;13424;48.424;11.258;2023-03-31T10:40:41;94361.94;;;17.38;68.11
25526;BME280;13424;48.424;11.258;2023-03-31T10:43:41;94349.22;;;17.30;65.02
25526;BME280;13424;48.424;11.258;2023-03-31T10:46:07;94347.50;;;17.43;65.04
25526;BME280;13424;48.424;11.258;2023-03-31T10:48:37;94344.91;;;16.67;65.24
25526;BME280;13424;48.424;11.258;2023-03-31T10:51:14;94321.00;;;16.96;65.03
25526;BME280;13424;48.424;11.258;2023-03-31T10:53:42;94333.47;;;17.63;67.01
25526;BME280;13424;48.424;11.258;2023-03-31T10:56:40;94329.25;;;16.91;65.75
25526;BME280;13424;48.424;11.258;2023-03-31T11:02:48;94298.50;;;16.61;61.97
25526;BME280;13424;48.424;11.258;2023-03-31T11:08:34;94326.47;;;16.52;62.40
25526;BME280;13424;48.424;11.258;2023-03-31T11:11:28;94317.22;;;16.97;62.60
25526;BME280;13424;48.424;11.258;2023-03-31T11:20:35;94321.31;;;16.41;63.03
25526;BME280;13424;48.424;11.258;2023-03-31T11:43:49;94229.94;;;18.63;56.56
25526;BME280;13424;48.424;11.258;2023-03-31T11:47:04;94235.00;;;17.74;56.88
25526;BME280;13424;48.424;11.258;2023-03-31T11:49:34;94225.03;;;17.00;58.15
25526;BME280;13424;48.424;11.258;2023-03-31T11:52:42;94219.91;;;17.56;61.21
25526;BME280;13424;48.424;11.258;2023-03-31T11:55:18;94213.41;;;17.48;60.44
25526;BME280;13424;48.424;11.258;2023-03-31T12:00:40;94205.75;;;17.16;61.61
25526;BME280;13424;48.424;11.258;2023-03-31T12:03:23;94205.97;;;16.80;61.69
25526;BME280;13424;48.424;11.258;2023-03-31T12:06:01;94201.56;;;16.92;61.42
25526;BME280;13424;48.424;11.258;2023-03-31T12:08:49;94202.03;;;16.86;61.44
25526;BME280;13424;48.424;11.258;2023-03-31T12:15:07;94198.97;;;17.53;58.72
25526;BME280;13424;48.424;11.258;2023-03-31T12:17:35;94208.94;;;17.35;59.38
25526;BME280;13424;48.424;11.258;2023-03-31T12:20:27;94187.56;;;17.39;58.88
25526;BME280;13424;48.424;11.258;2023-03-31T12:22:55;94177.59;;;17.74;58.00
25526;BME280;13424;48.424;11.258;2023-03-31T12:25:22;94177.06;;;18.15;56.73
25526;BME280;13424;48.424;11.258;2023-03-31T12:27:50;94187.25;;;17.75;57.12
25526;BME280;13424;48.424;11.258;2023-03-31T12:30:34;94170.44;;;18.04;54.84
25526;BME280;13424;48.424;11.258;2023-03-31T12:33:19;94171.16;;;18.22;55.50
25526;BME280;13424;48.424;11.258;2023-03-31T12:42:06;94196.28;;;17.62;55.84
25526;BME280;13424;48.424;11.258;2023-03-31T12:45:01;94177.44;;;17.62;56.12
25526;BME280;13424;48.424;11.258;2023-03-31T12:47:52;94179.88;;;17.06;57.38
25526;BME280;13424;48.424;11.258;2023-03-31T12:53:59;94198.19;;;16.69;57.41
25526;BME280;13424;48.424;11.258;2023-03-31T13:00:35;94215.94;;;16.48;58.27
25526;BME280;13424;48.424;11.258;2023-03-31T13:09:01;94193.50;;;16.22;58.56
25526;BME280;13424;48.424;11.258;2023-03-31T13:14:02;94208.84;;;15.76;60.51
25526;BME280;13424;48.424;11.258;2023-03-31T13:16:30;94254.50;;;15.40;62.40
25526;BME280;13424;48.424;11.258;2023-03-31T13:18:56;94306.19;;;13.41;69.51
25526;BME280;13424;48.424;11.258;2023-03-31T13:21:23;94295.16;;;11.94;71.86
25526;BME280;13424;48.424;11.258;2023-03-31T13:23:49;94285.78;;;12.26;73.80
25526;BME280;13424;48.424;11.258;2023-03-31T13:26:38;94281.22;;;12.55;75.04
25526;BME280;13424;48.424;11.258;2023-03-31T13:32:06;94276.44;;;12.76;74.95
25526;BME280;13424;48.424;11.258;2023-03-31T13:35:06;94273.28;;;13.41;73.06
25526;BME280;13424;48.424;11.258;2023-03-31T13:44:27;94256.53;;;13.87;71.42
25526;BME280;13424;48.424;11.258;2023-03-31T13:47:16;94240.16;;;14.67;71.82
25526;BME280;13424;48.424;11.258;2023-03-31T14:05:29;94214.06;;;15.59;63.47
25526;BME280;13424;48.424;11.258;2023-03-31T14:11:24;94230.69;;;15.97;62.77
25526;BME280;13424;48.424;11.258;2023-03-31T14:14:02;94232.53;;;15.38;63.04
25526;BME280;13424;48.424;11.258;2023-03-31T14:16:32;94233.84;;;15.41;63.63
25526;BME280;13424;48.424;11.258;2023-03-31T14:25:21;94208.44;;;14.97;63.35
25526;BME280;13424;48.424;11.258;2023-03-31T14:28:41;94219.09;;;14.74;63.90
25526;BME280;13424;48.424;11.258;2023-03-31T14:31:20;94211.91;;;14.97;62.78
25526;BME280;13424;48.424;11.258;2023-03-31T14:36:51;94213.50;;;14.85;62.88
25526;BME280;13424;48.424;11.258;2023-03-31T14:39:25;94216.19;;;14.57;63.06
25526;BME280;13424;48.424;11.258;2023-03-31T14:41:59;94220.09;;;14.65;63.57
25526;BME280;13424;48.424;11.258;2023-03-31T14:44:27;94231.13;;;14.63;64.59
25526;BME280;13424;48.424;11.258;2023-03-31T14:46:56;94226.34;;;14.28;63.20
25526;BME280;13424;48.424;11.258;2023-03-31T14:49:35;94239.44;;;14.48;63.93
25526;BME280;13424;48.424;11.258;2023-03-31T14:52:13;94225.72;;;14.49;62.79
25526;BME280;13424;48.424;11.258;2023-03-31T14:54:46;94232.09;;;14.67;63.09
25526;BME280;13424;48.424;11.258;2023-03-31T14:57:21;94229.25;;;14.45;64.20
25526;BME280;13424;48.424;11.258;2023-03-31T14:59:50;94230.09;;;14.45;65.59
25526;BME280;13424;48.424;11.258;2023-03-31T15:02:29;94227.72;;;14.11;67.40
25526;BME280;13424;48.424;11.258;2023-03-31T15:05:17;94201.09;;;14.01;68.48
25526;BME280;13424;48.424;11.258;2023-03-31T15:07:45;94177.00;;;14.15;69.20
25526;BME280;13424;48.424;11.258;2023-03-31T15:10:19;94171.59;;;15.47;65.66
25526;BME280;13424;48.424;11.258;2023-03-31T15:12:47;94182.53;;;15.28;60.92
25526;BME280;13424;48.424;11.258;2023-03-31T15:15:14;94194.72;;;14.98;62.47
25526;BME280;13424;48.424;11.258;2023-03-31T15:17:42;94200.44;;;15.19;64.88
25526;BME280;13424;48.424;11.258;2023-03-31T15:20:30;94199.19;;;15.39;63.81
25526;BME280;13424;48.424;11.258;2023-03-31T15:22:58;94203.63;;;15.57;64.39
25526;BME280;13424;48.424;11.258;2023-03-31T15:25:36;94212.72;;;14.98;64.24
25526;BME280;13424;48.424;11.258;2023-03-31T15:28:08;94204.09;;;14.87;64.90
25526;BME280;13424;48.424;11.258;2023-03-31T15:30:36;94224.47;;;14.88;65.57
25526;BME280;13424;48.424;11.258;2023-03-31T15:33:07;94219.75;;;15.07;63.26
25526;BME280;13424;48.424;11.258;2023-03-31T15:35:39;94226.75;;;14.95;64.19
25526;BME280;13424;48.424;11.258;2023-03-31T15:38:05;94230.13;;;14.87;64.03
25526;BME280;13424;48.424;11.258;2023-03-31T15:40:38;94220.19;;;14.73;64.22
25526;BME280;13424;48.424;11.258;2023-03-31T15:43:26;94222.38;;;14.71;64.83
25526;BME280;13424;48.424;11.258;2023-03-31T15:49:23;94205.03;;;14.22;63.13
25526;BME280;13424;48.424;11.258;2023-03-31T15:51:50;94214.28;;;14.30;63.97
25526;BME280;13424;48.424;11.258;2023-03-31T15:54:39;94222.69;;;14.23;63.70
25526;BME280;13424;48.424;11.258;2023-03-31T15:57:08;94232.66;;;13.72;63.08
25526;BME280;13424;48.424;11.258;2023-03-31T16:00:59;94244.41;;;13.76;64.10
25526;BME280;13424;48.424;11.258;2023-03-31T16:03:04;94245.19;;;13.76;63.03
25526;BME280;13424;48.424;11.258;2023-03-31T16:05:40;94257.72;;;13.43;65.24
25526;BME280;13424;48.424;11.258;2023-03-31T16:08:16;94248.47;;;13.35;64.45
25526;BME280;13424;48.424;11.258;2023-03-31T16:10:45;94237.84;;;13.06;63.78
25526;BME280;13424;48.424;11.258;2023-03-31T16:13:11;94244.94;;;13.16;63.74
25526;BME280;13424;48.424;11.258;2023-03-31T16:15:46;94239.88;;;13.14;63.49
25526;BME280;13424;48.424;11.258;2023-03-31T16:20:53;94255.69;;;13.35;63.52
25526;BME280;13424;48.424;11.258;2023-03-31T16:23:28;94245.72;;;13.59;63.70
25526;BME280;13424;48.424;11.258;2023-03-31T16:25:55;94258.34;;;13.73;64.22
25526;BME280;13424;48.424;11.258;2023-03-31T16:28:26;94274.28;;;13.02;63.56
25526;BME280;13424;48.424;11.258;2023-03-31T16:30:53;94281.66;;;13.34;63.97
25526;BME280;13424;48.424;11.258;2023-03-31T16:33:21;94283.47;;;13.39;65.07
25526;BME280;13424;48.424;11.258;2023-03-31T16:35:52;94284.97;;;13.02;65.67
25526;BME280;13424;48.424;11.258;2023-03-31T16:38:22;94296.72;;;13.06;65.84